sensor_id;sensor_type;location;lat;lon;timestamp;pressure;altitude;pressure_sealevel;temperature;humidity
3142;BME280;1581;51.568;6.998;2023-10-08T00:00:45;101511.00;;;19.88;100.00
3142;BME280;1581;51.568;6.998;2023-10-08T00:03:16;101500.66;;;19.85;100.00
3142;BME280;1581;51.568;6.998;2023-10-08T00:05:45;101502.75;;;19.83;100.00
3142;BME280;1581;51.568;6.998;2023-10-08T00:08:14;101500.19;;;19.88;100.00
3142;BME280;1581;51.568;6.998;2023-10-08T00:10:43;101513.22;;;19.80;100.00
3142;BME280;1581;51.568;6.998;2023-10-08T00:13:14;101531.19;;;19.74;100.00
3142;BME280;1581;51.568;6.998;2023-10-08T00:15:44;101520.44;;;19.68;100.00
3142;BME280;1581;51.568;6.998;2023-10-08T00:18:19;101528.94;;;19.71;100.00
3142;BME280;1581;51.568;6.998;2023-10-08T00:20:46;101526.25;;;19.71;100.00
3142;BME280;1581;51.568;6.998;2023-10-08T00:23:22;101550.78;;;19.70;100.00
3142;BME280;1581;51.568;6.998;2023-10-08T00:25:52;101553.50;;;19.70;100.00
3142;BME280;1581;51.568;6.998;2023-10-08T00:28:20;101554.03;;;19.78;100.00
3142;BME280;1581;51.568;6.998;2023-10-08T00:30:48;101547.66;;;19.73;100.00
3142;BME280;1581;51.568;6.998;2023-10-08T00:33:15;101543.44;;;19.59;100.00
3142;BME280;1581;51.568;6.998;2023-10-08T00:35:43;101549.00;;;19.64;100.00
3142;BME280;1581;51.568;6.998;2023-10-08T00:38:11;101542.63;;;19.58;100.00
3142;BME280;1581;51.568;6.998;2023-10-08T00:40:47;101536.91;;;19.66;100.00
3142;BME280;1581;51.568;6.998;2023-10-08T00:43:30;101557.34;;;19.62;100.00
3142;BME280;1581;51.568;6.998;2023-10-08T00:46:00;101545.47;;;19.63;100.00
3142;BME280;1581;51.568;6.998;2023-10-08T00:48:29;101556.28;;;19.63;100.00
3142;BME280;1581;51.568;6.998;2023-10-08T00:51:02;101549.47;;;19.61;100.00
3142;BME280;1581;51.568;6.998;2023-10-08T00:53:41;101539.78;;;19.53;100.00
3142;BME280;1581;51.568;6.998;2023-10-08T00:56:11;101554.94;;;19.54;100.00
3142;BME280;1581;51.568;6.998;2023-10-08T00:58:41;101541.06;;;19.51;100.00
3142;BME280;1581;51.568;6.998;2023-10-08T01:01:13;101539.34;;;19.56;100.00
3142;BME280;1581;51.568;6.998;2023-10-08T01:03:42;101551.94;;;19.44;100.00
3142;BME280;1581;51.568;6.998;2023-10-08T01:06:11;101576.00;;;19.34;100.00
3142;BME280;1581;51.568;6.998;2023-10-08T01:08:45;101567.19;;;19.39;100.00
3142;BME280;1581;51.568;6.998;2023-10-08T01:11:21;101563.81;;;19.43;100.00
3142;BME280;1581;51.568;6.998;2023-10-08T01:13:58;101565.94;;;19.41;100.00
3142;BME280;1581;51.568;6.998;2023-10-08T01:16:26;101561.78;;;19.39;100.00
3142;BME280;1581;51.568;6.998;2023-10-08T01:18:54;101574.06;;;19.41;100.00
3142;BME280;1581;51.568;6.998;2023-10-08T01:21:22;101586.22;;;19.50;100.00
3142;BME280;1581;51.568;6.998;2023-10-08T01:24:08;101579.22;;;19.43;100.00
3142;BME280;1581;51.568;6.998;2023-10-08T01:26:40;101576.75;;;19.41;100.00
3142;BME280;1581;51.568;6.998;2023-10-08T01:29:11;101575.84;;;19.29;100.00
3142;BME280;1581;51.568;6.998;2023-10-08T01:31:45;101581.63;;;19.33;100.00
3142;BME280;1581;51.568;6.998;2023-10-08T01:34:14;101577.66;;;19.35;100.00
3142;BME280;1581;51.568;6.998;2023-10-08T01:36:43;101570.50;;;19.23;100.00
3142;BME280;1581;51.568;6.998;2023-10-08T01:39:13;101565.84;;;19.30;100.00
3142;BME280;1581;51.568;6.998;2023-10-08T01:41:44;101564.56;;;19.32;100.00
3142;BME280;1581;51.568;6.998;2023-10-08T01:44:12;101560.00;;;19.33;100.00
3142;BME280;1581;51.568;6.998;2023-10-08T01:46:40;101551.28;;;19.31;100.00
3142;BME280;1581;51.568;6.998;2023-10-08T01:49:07;101550.69;;;19.29;100.00
3142;BME280;1581;51.568;6.998;2023-10-08T01:51:40;101551.38;;;19.24;100.00
3142;BME280;1581;51.568;6.998;2023-10-08T01:54:14;101563.38;;;19.28;100.00
3142;BME280;1581;51.568;6.998;2023-10-08T01:56:44;101566.09;;;19.28;100.00
3142;BME280;1581;51.568;6.998;2023-10-08T01:59:13;101572.00;;;19.19;100.00
3142;BME280;1581;51.568;6.998;2023-10-08T02:01:42;101564.88;;;19.24;100.00
3142;BME280;1581;51.568;6.998;2023-10-08T02:04:11;101563.22;;;19.23;100.00
3142;BME280;1581;51.568;6.998;2023-10-08T02:06:39;101558.88;;;19.22;100.00
3142;BME280;1581;51.568;6.998;2023-10-08T02:09:07;101564.56;;;19.14;100.00
3142;BME280;1581;51.568;6.998;2023-10-08T02:11:48;101563.97;;;19.12;100.00
3142;BME280;1581;51.568;6.998;2023-10-08T02:14:17;101543.31;;;19.18;100.00
3142;BME280;1581;51.568;6.998;2023-10-08T02:16:46;101531.53;;;19.12;100.00
3142;BME280;1581;51.568;6.998;2023-10-08T02:19:15;101547.47;;;19.20;100.00
3142;BME280;1581;51.568;6.998;2023-10-08T02:21:53;101548.19;;;19.09;100.00
3142;BME280;1581;51.568;6.998;2023-10-08T02:24:21;101539.09;;;19.04;100.00
3142;BME280;1581;51.568;6.998;2023-10-08T02:26:52;101487.09;;;19.08;100.00
3142;BME280;1581;51.568;6.998;2023-10-08T02:29:23;101495.53;;;19.18;100.00
3142;BME280;1581;51.568;6.998;2023-10-08T02:31:51;101505.66;;;19.23;100.00
3142;BME280;1581;51.568;6.998;2023-10-08T02:34:20;101544.09;;;19.25;100.00
3142;BME280;1581;51.568;6.998;2023-10-08T02:36:48;101541.47;;;19.18;100.00
3142;BME280;1581;51.568;6.998;2023-10-08T02:39:16;101535.69;;;19.15;100.00
3142;BME280;1581;51.568;6.998;2023-10-08T02:41:49;101550.00;;;19.15;100.00
3142;BME280;1581;51.568;6.998;2023-10-08T02:44:18;101545.22;;;19.17;100.00
3142;BME280;1581;51.568;6.998;2023-10-08T02:46:49;101544.28;;;19.05;100.00
3142;BME280;1581;51.568;6.998;2023-10-08T02:49:19;101552.97;;;19.07;100.00
3142;BME280;1581;51.568;6.998;2023-10-08T02:51:47;101559.19;;;19.08;100.00
3142;BME280;1581;51.568;6.998;2023-10-08T02:54:16;101583.31;;;19.09;100.00
3142;BME280;1581;51.568;6.998;2023-10-08T02:56:45;101561.91;;;19.08;100.00
3142;BME280;1581;51.568;6.998;2023-10-08T02:59:16;101586.88;;;19.03;100.00
3142;BME280;1581;51.568;6.998;2023-10-08T03:01:46;101596.03;;;19.02;100.00
3142;BME280;1581;51.568;6.998;2023-10-08T03:04:15;101607.03;;;19.07;100.00
3142;BME280;1581;51.568;6.998;2023-10-08T03:06:45;101609.84;;;18.95;100.00
3142;BME280;1581;51.568;6.998;2023-10-08T03:09:17;101608.66;;;18.91;100.00
3142;BME280;1581;51.568;6.998;2023-10-08T03:11:49;101609.50;;;18.85;100.00
3142;BME280;1581;51.568;6.998;2023-10-08T03:14:19;101619.59;;;18.96;100.00
3142;BME280;1581;51.568;6.998;2023-10-08T03:16:50;101630.72;;;19.05;100.00
3142;BME280;1581;51.568;6.998;2023-10-08T03:19:20;101616.78;;;19.08;100.00
3142;BME280;1581;51.568;6.998;2023-10-08T03:21:48;101588.53;;;19.04;100.00
3142;BME280;1581;51.568;6.998;2023-10-08T03:24:22;101606.94;;;18.96;100.00
3142;BME280;1581;51.568;6.998;2023-10-08T03:27:05;101581.47;;;18.86;100.00
3142;BME280;1581;51.568;6.998;2023-10-08T03:29:35;101567.84;;;18.99;100.00
3142;BME280;1581;51.568;6.998;2023-10-08T03:32:08;101591.00;;;18.88;100.00
3142;BME280;1581;51.568;6.998;2023-10-08T03:34:40;101587.09;;;18.84;100.00
3142;BME280;1581;51.568;6.998;2023-10-08T03:37:12;101570.34;;;18.76;100.00
3142;BME280;1581;51.568;6.998;2023-10-08T03:39:47;101589.84;;;18.78;100.00
3142;BME280;1581;51.568;6.998;2023-10-08T03:42:33;101593.59;;;18.77;100.00
3142;BME280;1581;51.568;6.998;2023-10-08T03:45:08;101561.34;;;18.82;100.00
3142;BME280;1581;51.568;6.998;2023-10-08T03:47:42;101567.16;;;18.85;100.00
3142;BME280;1581;51.568;6.998;2023-10-08T03:50:12;101563.47;;;18.80;100.00
3142;BME280;1581;51.568;6.998;2023-10-08T03:52:45;101566.41;;;18.72;100.00
3142;BME280;1581;51.568;6.998;2023-10-08T03:55:14;101586.59;;;18.69;100.00
3142;BME280;1581;51.568;6.998;2023-10-08T03:57:52;101597.44;;;18.63;100.00
3142;BME280;1581;51.568;6.998;2023-10-08T04:00:25;101618.84;;;18.64;100.00
3142;BME280;1581;51.568;6.998;2023-10-08T04:03:03;101587.88;;;18.67;100.00
3142;BME280;1581;51.568;6.998;2023-10-08T04:05:35;101560.75;;;18.55;100.00
3142;BME280;1581;51.568;6.998;2023-10-08T04:08:10;101584.34;;;18.66;100.00
3142;BME280;1581;51.568;6.998;2023-10-08T04:10:50;101591.84;;;18.64;100.00
3142;BME280;1581;51.568;6.998;2023-10-08T04:13:48;101595.41;;;18.58;100.00
3142;BME280;1581;51.568;6.998;2023-10-08T04:16:19;101613.44;;;18.64;100.00
3142;BME280;1581;51.568;6.998;2023-10-08T04:18:47;101609.41;;;18.49;100.00
3142;BME280;1581;51.568;6.998;2023-10-08T04:21:18;101614.97;;;18.54;100.00
3142;BME280;1581;51.568;6.998;2023-10-08T04:23:47;101612.44;;;18.59;100.00
3142;BME280;1581;51.568;6.998;2023-10-08T04:26:19;101618.28;;;18.56;100.00
3142;BME280;1581;51.568;6.998;2023-10-08T04:28:51;101615.16;;;18.59;100.00
3142;BME280;1581;51.568;6.998;2023-10-08T04:31:24;101622.34;;;18.65;100.00
3142;BME280;1581;51.568;6.998;2023-10-08T04:33:55;101625.47;;;18.62;100.00
3142;BME280;1581;51.568;6.998;2023-10-08T04:36:26;101619.88;;;18.63;100.00
3142;BME280;1581;51.568;6.998;2023-10-08T04:38:54;101631.00;;;18.49;100.00
3142;BME280;1581;51.568;6.998;2023-10-08T04:41:30;101621.06;;;18.43;100.00
3142;BME280;1581;51.568;6.998;2023-10-08T04:43:59;101613.56;;;18.45;100.00
3142;BME280;1581;51.568;6.998;2023-10-08T04:46:35;101598.69;;;18.36;100.00
3142;BME280;1581;51.568;6.998;2023-10-08T04:49:13;101597.59;;;18.43;100.00
3142;BME280;1581;51.568;6.998;2023-10-08T04:51:54;101619.31;;;18.55;100.00
3142;BME280;1581;51.568;6.998;2023-10-08T04:54:25;101626.66;;;18.48;100.00
3142;BME280;1581;51.568;6.998;2023-10-08T04:57:00;101636.81;;;18.46;100.00
3142;BME280;1581;51.568;6.998;2023-10-08T04:59:28;101658.84;;;18.43;100.00
3142;BME280;1581;51.568;6.998;2023-10-08T05:02:04;101654.28;;;18.43;100.00
3142;BME280;1581;51.568;6.998;2023-10-08T05:04:47;101666.03;;;18.24;100.00
3142;BME280;1581;51.568;6.998;2023-10-08T05:07:44;101664.75;;;18.33;100.00
3142;BME280;1581;51.568;6.998;2023-10-08T05:10:29;101660.41;;;18.26;100.00
3142;BME280;1581;51.568;6.998;2023-10-08T05:13:27;101664.50;;;18.35;100.00
3142;BME280;1581;51.568;6.998;2023-10-08T05:15:59;101663.88;;;18.33;100.00
3142;BME280;1581;51.568;6.998;2023-10-08T05:18:39;101664.34;;;18.30;100.00
3142;BME280;1581;51.568;6.998;2023-10-08T05:21:34;101659.78;;;18.17;100.00
3142;BME280;1581;51.568;6.998;2023-10-08T05:24:19;101661.13;;;18.02;100.00
3142;BME280;1581;51.568;6.998;2023-10-08T05:26:54;101656.69;;;18.14;100.00
3142;BME280;1581;51.568;6.998;2023-10-08T05:29:46;101653.00;;;18.09;100.00
3142;BME280;1581;51.568;6.998;2023-10-08T05:32:37;101651.34;;;18.08;100.00
3142;BME280;1581;51.568;6.998;2023-10-08T05:35:19;101623.50;;;18.13;100.00
3142;BME280;1581;51.568;6.998;2023-10-08T05:38:16;101617.94;;;18.09;100.00
3142;BME280;1581;51.568;6.998;2023-10-08T05:40:51;101628.69;;;18.15;100.00
3142;BME280;1581;51.568;6.998;2023-10-08T05:43:33;101634.09;;;18.09;100.00
3142;BME280;1581;51.568;6.998;2023-10-08T05:46:22;101646.94;;;18.13;100.00
3142;BME280;1581;51.568;6.998;2023-10-08T05:49:07;101657.38;;;18.03;100.00
3142;BME280;1581;51.568;6.998;2023-10-08T05:51:53;101665.91;;;18.07;100.00
3142;BME280;1581;51.568;6.998;2023-10-08T05:54:51;101668.63;;;18.00;100.00
3142;BME280;1581;51.568;6.998;2023-10-08T05:57:36;101665.53;;;17.90;100.00
3142;BME280;1581;51.568;6.998;2023-10-08T06:00:07;101662.34;;;18.06;100.00
3142;BME280;1581;51.568;6.998;2023-10-08T06:02:52;101672.72;;;18.09;100.00
3142;BME280;1581;51.568;6.998;2023-10-08T06:05:38;101675.19;;;18.11;100.00
3142;BME280;1581;51.568;6.998;2023-10-08T06:08:13;101681.09;;;17.95;100.00
3142;BME280;1581;51.568;6.998;2023-10-08T06:10:48;101670.06;;;18.03;100.00
3142;BME280;1581;51.568;6.998;2023-10-08T06:13:27;101667.97;;;18.05;100.00
3142;BME280;1581;51.568;6.998;2023-10-08T06:16:09;101689.31;;;18.06;100.00
3142;BME280;1581;51.568;6.998;2023-10-08T06:18:39;101702.41;;;18.03;100.00
3142;BME280;1581;51.568;6.998;2023-10-08T06:21:07;101707.97;;;18.14;100.00
3142;BME280;1581;51.568;6.998;2023-10-08T06:23:37;101709.63;;;18.15;100.00
3142;BME280;1581;51.568;6.998;2023-10-08T06:26:06;101720.81;;;18.18;100.00
3142;BME280;1581;51.568;6.998;2023-10-08T06:28:42;101725.41;;;18.18;100.00
3142;BME280;1581;51.568;6.998;2023-10-08T06:31:11;101719.78;;;18.13;100.00
3142;BME280;1581;51.568;6.998;2023-10-08T06:33:43;101715.88;;;18.09;100.00
3142;BME280;1581;51.568;6.998;2023-10-08T06:36:11;101716.69;;;18.10;100.00
3142;BME280;1581;51.568;6.998;2023-10-08T06:38:44;101716.91;;;18.14;100.00
3142;BME280;1581;51.568;6.998;2023-10-08T06:41:16;101720.81;;;18.12;100.00
3142;BME280;1581;51.568;6.998;2023-10-08T06:43:46;101715.44;;;18.12;100.00
3142;BME280;1581;51.568;6.998;2023-10-08T06:46:16;101712.81;;;17.99;100.00
3142;BME280;1581;51.568;6.998;2023-10-08T06:48:45;101742.69;;;17.98;100.00
3142;BME280;1581;51.568;6.998;2023-10-08T06:51:16;101762.38;;;18.11;100.00
3142;BME280;1581;51.568;6.998;2023-10-08T06:53:47;101783.09;;;18.17;100.00
3142;BME280;1581;51.568;6.998;2023-10-08T06:56:16;101767.31;;;18.14;100.00
3142;BME280;1581;51.568;6.998;2023-10-08T06:58:46;101760.06;;;18.14;100.00
3142;BME280;1581;51.568;6.998;2023-10-08T07:01:15;101749.72;;;18.05;100.00
3142;BME280;1581;51.568;6.998;2023-10-08T07:03:47;101742.03;;;18.02;100.00
3142;BME280;1581;51.568;6.998;2023-10-08T07:06:17;101763.00;;;18.07;100.00
3142;BME280;1581;51.568;6.998;2023-10-08T07:08:52;101775.22;;;18.15;100.00
3142;BME280;1581;51.568;6.998;2023-10-08T07:11:23;101793.88;;;18.30;100.00
3142;BME280;1581;51.568;6.998;2023-10-08T07:13:53;101796.78;;;18.22;100.00
3142;BME280;1581;51.568;6.998;2023-10-08T07:16:21;101787.44;;;18.31;100.00
3142;BME280;1581;51.568;6.998;2023-10-08T07:18:49;101781.19;;;18.37;100.00
3142;BME280;1581;51.568;6.998;2023-10-08T07:21:18;101789.25;;;18.43;100.00
3142;BME280;1581;51.568;6.998;2023-10-08T07:23:50;101789.41;;;18.48;100.00
3142;BME280;1581;51.568;6.998;2023-10-08T07:26:25;101792.97;;;18.49;100.00
3142;BME280;1581;51.568;6.998;2023-10-08T07:29:02;101777.63;;;18.43;100.00
3142;BME280;1581;51.568;6.998;2023-10-08T07:31:35;101768.47;;;18.44;100.00
3142;BME280;1581;51.568;6.998;2023-10-08T07:34:03;101773.69;;;18.45;100.00
3142;BME280;1581;51.568;6.998;2023-10-08T07:36:45;101781.16;;;18.43;100.00
3142;BME280;1581;51.568;6.998;2023-10-08T07:39:13;101774.25;;;18.47;100.00
3142;BME280;1581;51.568;6.998;2023-10-08T07:41:54;101790.31;;;18.36;100.00
3142;BME280;1581;51.568;6.998;2023-10-08T07:44:22;101804.28;;;18.26;100.00
3142;BME280;1581;51.568;6.998;2023-10-08T07:46:50;101812.53;;;18.18;100.00
3142;BME280;1581;51.568;6.998;2023-10-08T07:49:20;101807.16;;;18.12;100.00
3142;BME280;1581;51.568;6.998;2023-10-08T07:51:49;101807.59;;;18.09;100.00
3142;BME280;1581;51.568;6.998;2023-10-08T07:54:19;101801.34;;;18.15;100.00
3142;BME280;1581;51.568;6.998;2023-10-08T07:56:53;101809.69;;;18.07;100.00
3142;BME280;1581;51.568;6.998;2023-10-08T07:59:25;101810.53;;;18.01;100.00
3142;BME280;1581;51.568;6.998;2023-10-08T08:01:53;101810.94;;;17.98;100.00
3142;BME280;1581;51.568;6.998;2023-10-08T08:04:21;101825.88;;;17.94;100.00
3142;BME280;1581;51.568;6.998;2023-10-08T08:06:49;101826.50;;;17.90;100.00
3142;BME280;1581;51.568;6.998;2023-10-08T08:09:17;101837.13;;;17.78;100.00
3142;BME280;1581;51.568;6.998;2023-10-08T08:11:46;101837.53;;;17.82;100.00
3142;BME280;1581;51.568;6.998;2023-10-08T08:14:16;101848.53;;;17.80;100.00
3142;BME280;1581;51.568;6.998;2023-10-08T08:16:44;101850.38;;;17.67;100.00
3142;BME280;1581;51.568;6.998;2023-10-08T08:19:15;101854.78;;;17.61;100.00
3142;BME280;1581;51.568;6.998;2023-10-08T08:21:43;101854.34;;;17.71;100.00
3142;BME280;1581;51.568;6.998;2023-10-08T08:24:13;101842.72;;;17.70;100.00
3142;BME280;1581;51.568;6.998;2023-10-08T08:26:54;101846.25;;;17.71;100.00
3142;BME280;1581;51.568;6.998;2023-10-08T08:29:36;101849.34;;;17.74;100.00
3142;BME280;1581;51.568;6.998;2023-10-08T08:32:11;101855.38;;;17.76;100.00
3142;BME280;1581;51.568;6.998;2023-10-08T08:34:42;101851.41;;;17.79;100.00
3142;BME280;1581;51.568;6.998;2023-10-08T08:37:11;101855.78;;;17.80;100.00
3142;BME280;1581;51.568;6.998;2023-10-08T08:39:39;101849.34;;;17.81;100.00
3142;BME280;1581;51.568;6.998;2023-10-08T08:42:08;101849.75;;;17.84;100.00
3142;BME280;1581;51.568;6.998;2023-10-08T08:44:39;101857.84;;;17.84;100.00
3142;BME280;1581;51.568;6.998;2023-10-08T08:47:13;101865.31;;;17.82;100.00
3142;BME280;1581;51.568;6.998;2023-10-08T08:49:44;101878.19;;;17.80;100.00
3142;BME280;1581;51.568;6.998;2023-10-08T08:52:12;101881.72;;;17.81;100.00
3142;BME280;1581;51.568;6.998;2023-10-08T08:54:40;101864.28;;;17.77;100.00
3142;BME280;1581;51.568;6.998;2023-10-08T08:57:10;101868.00;;;17.82;100.00
3142;BME280;1581;51.568;6.998;2023-10-08T08:59:49;101874.47;;;17.81;100.00
3142;BME280;1581;51.568;6.998;2023-10-08T09:02:20;101882.75;;;17.86;100.00
3142;BME280;1581;51.568;6.998;2023-10-08T09:04:49;101894.97;;;17.82;100.00
3142;BME280;1581;51.568;6.998;2023-10-08T09:07:20;101896.84;;;17.88;100.00
3142;BME280;1581;51.568;6.998;2023-10-08T09:09:48;101901.00;;;17.91;100.00
3142;BME280;1581;51.568;6.998;2023-10-08T09:12:19;101908.06;;;17.92;100.00
3142;BME280;1581;51.568;6.998;2023-10-08T09:14:49;101906.16;;;17.92;100.00
3142;BME280;1581;51.568;6.998;2023-10-08T09:17:17;101904.53;;;17.91;100.00
3142;BME280;1581;51.568;6.998;2023-10-08T09:19:45;101915.94;;;18.00;100.00
3142;BME280;1581;51.568;6.998;2023-10-08T09:22:13;101928.19;;;17.96;100.00
3142;BME280;1581;51.568;6.998;2023-10-08T09:24:45;101926.72;;;17.93;100.00
3142;BME280;1581;51.568;6.998;2023-10-08T09:27:14;101928.81;;;17.91;100.00
3142;BME280;1581;51.568;6.998;2023-10-08T09:29:48;101938.75;;;17.97;100.00
3142;BME280;1581;51.568;6.998;2023-10-08T09:32:16;101922.16;;;18.07;100.00
3142;BME280;1581;51.568;6.998;2023-10-08T09:34:49;101924.25;;;17.98;100.00
3142;BME280;1581;51.568;6.998;2023-10-08T09:37:18;101925.91;;;17.86;100.00
3142;BME280;1581;51.568;6.998;2023-10-08T09:39:49;101930.28;;;18.07;100.00
3142;BME280;1581;51.568;6.998;2023-10-08T09:42:19;101935.03;;;17.98;100.00
3142;BME280;1581;51.568;6.998;2023-10-08T09:44:50;101938.78;;;18.10;100.00
3142;BME280;1581;51.568;6.998;2023-10-08T09:47:21;101933.97;;;18.12;100.00
3142;BME280;1581;51.568;6.998;2023-10-08T09:49:56;101929.19;;;18.14;100.00
3142;BME280;1581;51.568;6.998;2023-10-08T09:52:30;101920.06;;;18.15;100.00
3142;BME280;1581;51.568;6.998;2023-10-08T09:55:02;101918.84;;;18.05;100.00
3142;BME280;1581;51.568;6.998;2023-10-08T09:57:36;101924.25;;;18.11;100.00
3142;BME280;1581;51.568;6.998;2023-10-08T10:00:07;101921.72;;;18.16;100.00
3142;BME280;1581;51.568;6.998;2023-10-08T10:02:41;101919.66;;;18.12;100.00
3142;BME280;1581;51.568;6.998;2023-10-08T10:05:11;101916.34;;;18.29;100.00
3142;BME280;1581;51.568;6.998;2023-10-08T10:07:41;101921.75;;;18.29;100.00
3142;BME280;1581;51.568;6.998;2023-10-08T10:10:27;101919.44;;;18.13;100.00
3142;BME280;1581;51.568;6.998;2023-10-08T10:12:59;101922.34;;;18.18;100.00
3142;BME280;1581;51.568;6.998;2023-10-08T10:15:29;101924.03;;;18.13;100.00
3142;BME280;1581;51.568;6.998;2023-10-08T10:18:09;101933.78;;;18.13;100.00
3142;BME280;1581;51.568;6.998;2023-10-08T10:20:44;101938.31;;;18.19;100.00
3142;BME280;1581;51.568;6.998;2023-10-08T10:23:37;101940.41;;;18.17;100.00
3142;BME280;1581;51.568;6.998;2023-10-08T10:26:22;101939.16;;;18.33;100.00
3142;BME280;1581;51.568;6.998;2023-10-08T10:29:22;101940.00;;;18.40;100.00
3142;BME280;1581;51.568;6.998;2023-10-08T10:31:54;101942.06;;;18.44;100.00
3142;BME280;1581;51.568;6.998;2023-10-08T10:34:25;101948.50;;;18.56;100.00
3142;BME280;1581;51.568;6.998;2023-10-08T10:36:56;101944.53;;;18.52;100.00
3142;BME280;1581;51.568;6.998;2023-10-08T10:39:25;101954.50;;;18.52;100.00
3142;BME280;1581;51.568;6.998;2023-10-08T10:41:56;101956.81;;;18.42;100.00
3142;BME280;1581;51.568;6.998;2023-10-08T10:44:27;101956.78;;;18.55;100.00
3142;BME280;1581;51.568;6.998;2023-10-08T10:46:59;101954.31;;;18.53;100.00
3142;BME280;1581;51.568;6.998;2023-10-08T10:49:53;101949.28;;;18.70;100.00
3142;BME280;1581;51.568;6.998;2023-10-08T10:52:42;101944.03;;;18.88;100.00
3142;BME280;1581;51.568;6.998;2023-10-08T10:55:18;101941.31;;;18.94;100.00
3142;BME280;1581;51.568;6.998;2023-10-08T10:57:52;101942.50;;;19.04;100.00
3142;BME280;1581;51.568;6.998;2023-10-08T11:00:23;101941.00;;;19.21;100.00
3142;BME280;1581;51.568;6.998;2023-10-08T11:03:10;101935.25;;;19.42;100.00
3142;BME280;1581;51.568;6.998;2023-10-08T11:05:48;101935.78;;;19.57;100.00
3142;BME280;1581;51.568;6.998;2023-10-08T11:08:18;101930.72;;;19.67;100.00
3142;BME280;1581;51.568;6.998;2023-10-08T11:10:48;101930.19;;;19.83;98.88
3142;BME280;1581;51.568;6.998;2023-10-08T11:13:19;101931.72;;;19.73;99.17
3142;BME280;1581;51.568;6.998;2023-10-08T11:15:50;101935.91;;;19.69;99.56
3142;BME280;1581;51.568;6.998;2023-10-08T11:18:22;101940.06;;;19.71;99.49
3142;BME280;1581;51.568;6.998;2023-10-08T11:20:51;101938.28;;;19.83;99.41
3142;BME280;1581;51.568;6.998;2023-10-08T11:23:34;101942.19;;;19.93;99.32
3142;BME280;1581;51.568;6.998;2023-10-08T11:26:04;101936.44;;;19.84;99.96
3142;BME280;1581;51.568;6.998;2023-10-08T11:28:34;101925.75;;;19.88;99.77
3142;BME280;1581;51.568;6.998;2023-10-08T11:31:03;101935.09;;;19.99;99.33
3142;BME280;1581;51.568;6.998;2023-10-08T11:33:38;101932.41;;;19.92;99.19
3142;BME280;1581;51.568;6.998;2023-10-08T11:36:08;101927.41;;;19.96;99.04
3142;BME280;1581;51.568;6.998;2023-10-08T11:38:44;101935.09;;;19.99;98.45
3142;BME280;1581;51.568;6.998;2023-10-08T11:41:17;101925.94;;;19.93;97.69
3142;BME280;1581;51.568;6.998;2023-10-08T11:43:49;101919.53;;;19.88;97.67
3142;BME280;1581;51.568;6.998;2023-10-08T11:46:22;101915.44;;;19.79;97.98
3142;BME280;1581;51.568;6.998;2023-10-08T11:48:53;101910.03;;;19.79;98.30
3142;BME280;1581;51.568;6.998;2023-10-08T11:51:24;101918.69;;;19.63;98.17
3142;BME280;1581;51.568;6.998;2023-10-08T11:53:53;101907.97;;;19.50;98.52
3142;BME280;1581;51.568;6.998;2023-10-08T11:56:22;101909.84;;;19.50;98.60
3142;BME280;1581;51.568;6.998;2023-10-08T11:58:50;101904.81;;;19.53;98.53
3142;BME280;1581;51.568;6.998;2023-10-08T12:01:18;101908.09;;;19.62;97.85
3142;BME280;1581;51.568;6.998;2023-10-08T12:03:46;101905.34;;;19.68;97.80
3142;BME280;1581;51.568;6.998;2023-10-08T12:06:17;101901.22;;;19.66;97.57
3142;BME280;1581;51.568;6.998;2023-10-08T12:08:45;101898.00;;;19.75;96.80
3142;BME280;1581;51.568;6.998;2023-10-08T12:11:14;101905.69;;;19.78;96.89
3142;BME280;1581;51.568;6.998;2023-10-08T12:13:42;101892.53;;;19.82;96.48
3142;BME280;1581;51.568;6.998;2023-10-08T12:16:15;101901.22;;;19.90;95.66
3142;BME280;1581;51.568;6.998;2023-10-08T12:18:48;101895.34;;;19.69;96.45
3142;BME280;1581;51.568;6.998;2023-10-08T12:21:21;101893.91;;;19.66;96.68
3142;BME280;1581;51.568;6.998;2023-10-08T12:23:51;101881.72;;;19.82;95.79
3142;BME280;1581;51.568;6.998;2023-10-08T12:26:21;101885.78;;;19.97;95.51
3142;BME280;1581;51.568;6.998;2023-10-08T12:28:49;101892.84;;;19.98;95.09
3142;BME280;1581;51.568;6.998;2023-10-08T12:31:17;101894.88;;;20.02;95.47
3142;BME280;1581;51.568;6.998;2023-10-08T12:33:48;101889.63;;;20.07;95.37
3142;BME280;1581;51.568;6.998;2023-10-08T12:36:21;101891.28;;;20.08;94.41
3142;BME280;1581;51.568;6.998;2023-10-08T12:38:50;101892.63;;;20.17;94.60
3142;BME280;1581;51.568;6.998;2023-10-08T12:41:23;101895.19;;;20.12;94.70
3142;BME280;1581;51.568;6.998;2023-10-08T12:43:53;101889.13;;;20.17;94.25
3142;BME280;1581;51.568;6.998;2023-10-08T12:46:21;101877.69;;;20.15;94.08
3142;BME280;1581;51.568;6.998;2023-10-08T12:48:52;101879.16;;;20.35;93.41
3142;BME280;1581;51.568;6.998;2023-10-08T12:51:23;101876.34;;;20.42;93.31
3142;BME280;1581;51.568;6.998;2023-10-08T12:53:52;101871.22;;;20.52;92.67
3142;BME280;1581;51.568;6.998;2023-10-08T12:56:26;101870.47;;;20.45;93.09
3142;BME280;1581;51.568;6.998;2023-10-08T12:59:02;101861.56;;;20.44;92.40
3142;BME280;1581;51.568;6.998;2023-10-08T13:01:33;101847.63;;;20.41;92.85
3142;BME280;1581;51.568;6.998;2023-10-08T13:04:02;101846.66;;;20.35;92.89
3142;BME280;1581;51.568;6.998;2023-10-08T13:06:35;101856.25;;;20.49;93.03
3142;BME280;1581;51.568;6.998;2023-10-08T13:09:04;101851.53;;;20.27;93.70
3142;BME280;1581;51.568;6.998;2023-10-08T13:11:39;101851.34;;;20.04;94.26
3142;BME280;1581;51.568;6.998;2023-10-08T13:14:06;101846.25;;;19.89;94.74
3142;BME280;1581;51.568;6.998;2023-10-08T13:16:34;101845.84;;;19.68;95.46
3142;BME280;1581;51.568;6.998;2023-10-08T13:19:04;101845.78;;;19.75;94.67
3142;BME280;1581;51.568;6.998;2023-10-08T13:21:35;101835.06;;;19.86;94.35
3142;BME280;1581;51.568;6.998;2023-10-08T13:24:04;101828.22;;;19.84;94.38
3142;BME280;1581;51.568;6.998;2023-10-08T13:26:35;101806.69;;;19.71;94.91
3142;BME280;1581;51.568;6.998;2023-10-08T13:29:04;101799.19;;;19.73;94.95
3142;BME280;1581;51.568;6.998;2023-10-08T13:31:35;101798.19;;;19.67;95.44